createdAt,value
2022-08-02T00:00:59.062Z,568.40
2022-08-02T00:01:59.209Z,561.20
2022-08-02T00:02:59.076Z,567.00
2022-08-02T00:03:59.020Z,565.10
2022-08-02T00:04:59.018Z,571.90
2022-08-02T00:05:59.002Z,567.40
2022-08-02T00:06:59.017Z,568.70
2022-08-02T00:07:59.094Z,569.60
2022-08-02T00:08:58.968Z,576.20
2022-08-02T00:09:58.960Z,571.90
2022-08-02T00:10:58.951Z,568.30
2022-08-02T00:11:58.948Z,566.70
2022-08-02T00:12:58.954Z,574.80
2022-08-02T00:13:59.031Z,572.80
2022-08-02T00:14:58.918Z,569.30
2022-08-02T00:15:58.910Z,581.10
2022-08-02T00:16:58.992Z,583.00
2022-08-02T00:17:58.867Z,582.00
2022-08-02T00:18:58.907Z,578.50
2022-08-02T00:19:58.848Z,576.50
2022-08-02T00:20:58.866Z,578.10
2022-08-02T00:21:58.814Z,573.80
2022-08-02T00:22:58.833Z,571.50
2022-08-02T00:24:27.947Z,562.20
2022-08-02T00:24:59.803Z,558.10
2022-08-02T00:25:58.781Z,560.70
2022-08-02T00:26:58.798Z,567.20
2022-08-02T00:27:58.753Z,561.60
2022-08-02T00:28:58.779Z,570.90
2022-08-02T00:29:58.736Z,564.40
2022-08-02T00:30:58.727Z,569.20
2022-08-02T00:31:58.717Z,563.20
2022-08-02T00:32:58.712Z,565.80
2022-08-02T00:34:04.854Z,563.40
2022-08-02T00:34:59.681Z,569.10
2022-08-02T00:35:58.691Z,573.50
2022-08-02T00:36:58.663Z,566.90
2022-08-02T00:37:58.679Z,564.50
2022-08-02T00:38:58.669Z,560.60
2022-08-02T00:39:58.635Z,554.00
2022-08-02T00:40:58.610Z,549.70
2022-08-02T00:41:58.603Z,554.30
2022-08-02T00:42:58.591Z,559.20
2022-08-02T00:43:58.615Z,559.30
2022-08-02T00:44:58.571Z,562.20
2022-08-02T00:46:03.384Z,558.50
2022-08-02T00:46:59.555Z,546.30
2022-08-02T00:47:58.528Z,544.20
2022-08-02T00:48:58.575Z,540.60
2022-08-02T00:49:58.515Z,534.20
2022-08-02T00:50:58.496Z,519.40
2022-08-02T00:51:58.507Z,516.30
2022-08-02T00:52:58.492Z,508.60
2022-08-02T00:53:58.485Z,502.10
2022-08-02T00:54:58.451Z,498.50
2022-08-02T00:55:58.460Z,492.50
2022-08-02T00:56:58.462Z,496.70
2022-08-02T00:57:58.428Z,501.40
2022-08-02T00:58:58.438Z,500.00
2022-08-02T00:59:58.399Z,506.60
2022-08-02T01:00:58.494Z,521.90
2022-08-02T01:01:58.561Z,521.70
2022-08-02T01:02:58.372Z,536.90
2022-08-02T01:03:58.382Z,529.50
2022-08-02T01:04:58.347Z,531.10
2022-08-02T01:06:11.015Z,535.10
2022-08-02T01:06:59.322Z,530.90
2022-08-02T01:07:58.309Z,510.90
2022-08-02T01:08:58.336Z,375.80
2022-08-02T01:09:58.289Z,530.20
2022-08-02T01:10:58.263Z,509.10
2022-08-02T01:12:07.354Z,504.30
2022-08-02T01:12:59.232Z,508.10
2022-08-02T01:13:58.268Z,509.00
2022-08-02T01:14:58.226Z,517.40
2022-08-02T01:15:58.221Z,501.00
2022-08-02T01:16:58.224Z,507.40
2022-08-02T01:17:58.191Z,519.00
2022-08-02T01:18:58.216Z,528.70
2022-08-02T01:19:58.176Z,522.40
2022-08-02T01:20:58.163Z,519.60
2022-08-02T01:21:58.147Z,528.50
2022-08-02T01:23:01.729Z,532.40
2022-08-02T01:23:58.158Z,540.00
2022-08-02T01:24:58.154Z,535.90
2022-08-02T01:25:58.126Z,541.10
2022-08-02T01:26:58.087Z,551.80
2022-08-02T01:27:58.081Z,554.70
2022-08-02T01:28:58.057Z,562.80
2022-08-02T01:29:58.102Z,566.50
2022-08-02T01:30:58.043Z,561.10
2022-08-02T01:31:58.043Z,556.70
2022-08-02T01:32:58.048Z,543.60
2022-08-02T01:33:58.011Z,531.50
2022-08-02T01:34:58.026Z,525.90
2022-08-02T01:35:57.989Z,529.60
2022-08-02T01:36:57.981Z,537.80
2022-08-02T01:37:57.961Z,526.00
2022-08-02T01:38:57.946Z,516.50
2022-08-02T01:39:57.973Z,509.80
2022-08-02T01:40:57.945Z,502.30
2022-08-02T01:42:08.128Z,508.20
2022-08-02T01:42:58.914Z,512.00
2022-08-02T01:43:57.906Z,513.50
2022-08-02T01:44:57.940Z,509.70
2022-08-02T01:45:57.879Z,506.70
2022-08-02T01:46:57.857Z,504.20
2022-08-02T01:47:57.854Z,501.60
2022-08-02T01:48:57.871Z,500.80
2022-08-02T01:49:57.926Z,496.90
2022-08-02T01:50:57.837Z,489.20
2022-08-02T01:51:57.826Z,488.20
2022-08-02T01:52:57.792Z,488.40
2022-08-02T01:53:57.791Z,485.90
2022-08-02T01:54:57.806Z,495.80
2022-08-02T01:55:59.064Z,495.90
2022-08-02T01:56:57.749Z,497.50
2022-08-02T01:57:57.752Z,504.10
2022-08-02T01:58:57.724Z,512.90
2022-08-02T01:59:57.750Z,519.20
2022-08-02T02:00:57.789Z,517.40
2022-08-02T02:01:57.700Z,524.40
2022-08-02T02:02:57.683Z,550.70
2022-08-02T02:03:57.672Z,556.40
2022-08-02T02:04:57.687Z,551.20
2022-08-02T02:05:57.691Z,554.60
2022-08-02T02:06:57.630Z,555.80
2022-08-02T02:07:57.626Z,558.40
2022-08-02T02:08:57.605Z,569.10
2022-08-02T02:09:57.774Z,603.30
2022-08-02T02:10:57.613Z,668.00
2022-08-02T02:12:05.275Z,672.40
2022-08-02T02:12:58.564Z,676.50
2022-08-02T02:13:57.559Z,678.70
2022-08-02T02:14:57.577Z,666.70
2022-08-02T02:15:57.537Z,665.00
2022-08-02T02:16:57.541Z,658.30
2022-08-02T02:18:12.860Z,639.60
2022-08-02T02:18:58.502Z,650.50
2022-08-02T02:19:57.533Z,641.50
2022-08-02T02:20:57.609Z,638.50
2022-08-02T02:21:57.481Z,628.40
2022-08-02T02:22:57.516Z,637.00
2022-08-02T02:23:57.447Z,638.40
2022-08-02T02:24:57.565Z,617.10
2022-08-02T02:25:57.525Z,656.00
2022-08-02T02:26:57.446Z,651.10
2022-08-02T02:27:57.420Z,643.70
2022-08-02T02:28:57.395Z,645.00
2022-08-02T02:29:57.419Z,663.40
2022-08-02T02:30:57.460Z,676.70
2022-08-02T02:31:57.453Z,704.70
2022-08-02T02:32:57.480Z,725.30
2022-08-02T02:33:57.345Z,737.50
2022-08-02T02:34:57.372Z,761.20
2022-08-02T02:35:58.227Z,746.40
2022-08-02T02:36:57.299Z,781.20
2022-08-02T02:37:57.289Z,808.40
2022-08-02T02:38:57.275Z,785.70
2022-08-02T02:39:57.315Z,753.70
2022-08-02T02:40:57.264Z,785.50
2022-08-02T02:41:57.256Z,784.50
2022-08-02T02:42:57.253Z,775.90
2022-08-02T02:43:57.324Z,785.00
2022-08-02T02:44:57.247Z,836.20
2022-08-02T02:45:57.212Z,859.90
2022-08-02T02:46:57.306Z,894.70
2022-08-02T02:47:57.174Z,928.50
2022-08-02T02:48:57.275Z,930.60
2022-08-02T02:49:57.188Z,937.40
2022-08-02T02:50:57.190Z,929.30
2022-08-02T02:51:57.173Z,937.00
2022-08-02T02:52:57.175Z,916.00
2022-08-02T02:54:32.617Z,953.30
2022-08-02T02:54:58.154Z,998.40
2022-08-02T02:56:02.480Z,951.10
2022-08-02T02:56:58.251Z,991.90
2022-08-02T02:57:57.158Z,962.30
2022-08-02T02:58:57.052Z,1034.80
2022-08-02T02:59:57.044Z,1006.50
2022-08-02T03:00:57.093Z,1133.50
2022-08-02T03:01:58.279Z,1114.30
2022-08-02T03:02:57.022Z,1154.00
2022-08-02T03:03:57.016Z,1185.50
2022-08-02T03:04:58.257Z,1307.60
2022-08-02T03:05:57.019Z,1253.90
2022-08-02T03:06:56.945Z,1223.90
2022-08-02T03:07:56.953Z,1431.70
2022-08-02T03:08:56.937Z,1130.20
2022-08-02T03:09:56.949Z,1083.00
2022-08-02T03:10:56.974Z,1185.20
2022-08-02T03:11:56.906Z,1272.00
2022-08-02T03:12:56.890Z,1144.10
2022-08-02T03:13:56.878Z,1217.70
2022-08-02T03:14:56.858Z,1083.20
2022-08-02T03:15:56.888Z,1074.60
2022-08-02T03:16:56.839Z,1069.40
2022-08-02T03:17:56.833Z,1056.20
2022-08-02T03:18:56.825Z,1184.40
2022-08-02T03:19:56.819Z,1126.10
2022-08-02T03:20:56.824Z,1190.30
2022-08-02T03:21:57.585Z,1444.70
2022-08-02T03:22:56.771Z,1768.00
2022-08-02T03:23:56.768Z,1492.20
2022-08-02T03:24:56.788Z,1735.50
2022-08-02T03:25:56.761Z,1696.80
2022-08-02T03:26:56.770Z,1560.10
2022-08-02T03:27:56.739Z,1364.60
2022-08-02T03:28:56.702Z,1254.60
2022-08-02T03:29:56.731Z,1022.20
2022-08-02T03:30:56.693Z,1000.80
2022-08-02T03:31:56.683Z,1010.60
2022-08-02T03:32:56.703Z,917.90
2022-08-02T03:33:56.663Z,887.50
2022-08-02T03:34:56.670Z,826.40
2022-08-02T03:35:56.694Z,768.20
2022-08-02T03:36:56.604Z,787.40
2022-08-02T03:37:56.627Z,756.70
2022-08-02T03:38:56.575Z,744.50
2022-08-02T03:39:56.626Z,719.10
2022-08-02T03:40:56.668Z,739.40
2022-08-02T03:41:56.569Z,690.10
2022-08-02T03:42:56.558Z,686.40
2022-08-02T03:43:56.535Z,661.10
2022-08-02T03:44:56.652Z,659.50
2022-08-02T03:45:56.600Z,657.50
2022-08-02T03:46:56.499Z,660.30
2022-08-02T03:47:58.838Z,651.70
2022-08-02T03:48:56.517Z,638.20
2022-08-02T03:49:56.607Z,646.30
2022-08-02T03:50:56.564Z,649.80
2022-08-02T03:51:56.440Z,649.60
2022-08-02T03:52:56.426Z,635.60
2022-08-02T03:53:56.528Z,610.60
2022-08-02T03:54:56.535Z,612.50
2022-08-02T03:55:56.417Z,604.90
2022-08-02T03:56:56.387Z,577.40
2022-08-02T03:57:56.374Z,592.70
2022-08-02T03:58:56.456Z,577.80
2022-08-02T03:59:56.385Z,564.90
2022-08-02T04:00:56.448Z,566.00
2022-08-02T04:01:56.344Z,562.00
2022-08-02T04:02:56.409Z,568.80
2022-08-02T04:03:56.392Z,551.00
2022-08-02T04:04:56.317Z,573.40
2022-08-02T04:06:04.075Z,562.40
2022-08-02T04:06:57.259Z,578.90
2022-08-02T04:08:34.046Z,568.90
2022-08-02T04:08:57.352Z,568.00
2022-08-02T04:09:56.305Z,585.70
2022-08-02T04:10:56.322Z,582.00
2022-08-02T04:11:56.305Z,564.40
2022-08-02T04:12:56.310Z,589.00
2022-08-02T04:13:57.001Z,612.30
2022-08-02T04:14:56.245Z,616.20
2022-08-02T04:15:56.205Z,656.00
2022-08-02T04:16:56.162Z,680.20
2022-08-02T04:17:56.267Z,706.40
2022-08-02T04:18:56.134Z,661.10
2022-08-02T04:19:56.222Z,695.60
2022-08-02T04:20:56.120Z,693.00
2022-08-02T04:21:56.211Z,671.60
2022-08-02T04:22:56.095Z,672.80
2022-08-02T04:23:56.088Z,666.50
2022-08-02T04:24:56.148Z,665.90
2022-08-02T04:25:56.070Z,651.60
2022-08-02T04:26:57.861Z,629.30
2022-08-02T04:28:15.344Z,626.80
2022-08-02T04:28:57.121Z,618.30
2022-08-02T04:29:56.100Z,605.70
2022-08-02T04:30:56.000Z,642.30
2022-08-02T04:31:55.991Z,665.10
2022-08-02T04:32:55.975Z,705.30
2022-08-02T04:33:55.993Z,700.10
2022-08-02T04:35:19.073Z,803.80
2022-08-02T04:35:59.715Z,843.90
2022-08-02T04:36:55.935Z,863.20
2022-08-02T04:38:09.365Z,879.60
2022-08-02T04:38:56.936Z,913.70
2022-08-02T04:39:55.960Z,917.00
2022-08-02T04:40:55.932Z,973.10
2022-08-02T04:41:57.910Z,969.10
2022-08-02T04:42:55.875Z,1055.20
2022-08-02T04:43:55.879Z,1088.20
2022-08-02T04:44:55.910Z,1266.00
2022-08-02T04:45:55.852Z,1290.80
2022-08-02T04:46:55.832Z,1415.60
2022-08-02T04:48:04.468Z,1648.10
2022-08-02T04:48:56.856Z,1555.10
2022-08-02T04:49:55.867Z,1790.40
2022-08-02T04:50:55.801Z,1912.60
2022-08-02T04:51:55.800Z,1950.90
2022-08-02T04:52:55.789Z,1999.90
2022-08-02T04:53:55.759Z,1999.90
2022-08-02T04:54:56.745Z,1931.40
2022-08-02T04:55:55.858Z,1998.30
2022-08-02T04:56:55.716Z,1787.90
2022-08-02T04:57:55.768Z,1967.90
2022-08-02T04:58:55.679Z,1999.90
2022-08-02T04:59:55.748Z,1999.90
2022-08-02T05:00:55.747Z,1999.90
2022-08-02T05:01:55.704Z,1999.90
2022-08-02T05:02:55.670Z,1999.90
2022-08-02T05:03:55.654Z,1999.90
2022-08-02T05:04:55.697Z,1999.90
2022-08-02T05:05:55.677Z,1999.90
2022-08-02T05:06:55.627Z,1999.90
2022-08-02T05:07:55.603Z,1802.40
2022-08-02T05:08:55.630Z,1999.90
2022-08-02T05:09:55.623Z,1999.90
2022-08-02T05:10:55.665Z,1999.90
2022-08-02T05:11:55.585Z,1999.90
2022-08-02T05:12:55.534Z,1889.00
2022-08-02T05:13:57.601Z,1999.90
2022-08-02T05:14:55.557Z,1999.90
2022-08-02T05:15:55.701Z,1999.90
2022-08-02T05:16:55.523Z,1999.90
2022-08-02T05:17:55.478Z,1999.90
2022-08-02T05:18:55.518Z,1999.90
2022-08-02T05:19:55.472Z,1999.90
2022-08-02T05:20:58.266Z,1999.90
2022-08-02T05:21:55.443Z,1999.90
2022-08-02T05:22:55.455Z,1999.90
2022-08-02T05:23:55.410Z,1999.90
2022-08-02T05:24:55.443Z,1999.90
2022-08-02T05:25:55.432Z,1999.90
2022-08-02T05:26:55.386Z,1999.90
2022-08-02T05:27:55.390Z,1999.90
2022-08-02T05:28:55.408Z,1999.90
2022-08-02T05:29:56.923Z,1999.90
2022-08-02T05:30:55.449Z,1999.90
2022-08-02T05:31:55.321Z,1999.90
2022-08-02T05:32:55.311Z,1999.90
2022-08-02T05:33:55.349Z,1999.90
2022-08-02T05:34:55.323Z,1999.90
2022-08-02T05:35:55.350Z,1999.90
2022-08-02T05:36:55.290Z,1999.90
2022-08-02T05:37:55.337Z,1999.90
2022-08-02T05:39:04.624Z,1999.90
2022-08-02T05:39:56.485Z,1999.90
2022-08-02T05:40:55.371Z,1999.90
2022-08-02T05:41:55.231Z,1999.90
2022-08-02T05:42:55.255Z,1999.90
2022-08-02T05:43:55.245Z,1999.90
2022-08-02T05:44:55.193Z,1999.90
2022-08-02T05:45:55.263Z,1999.90
2022-08-02T05:46:55.168Z,1655.30
2022-08-02T05:47:55.142Z,1999.90
2022-08-02T05:48:55.199Z,1999.90
2022-08-02T05:49:55.182Z,1999.90
2022-08-02T05:50:55.181Z,730.50
2022-08-02T05:51:55.136Z,1999.90
2022-08-02T05:52:55.101Z,1999.90
2022-08-02T05:53:55.091Z,1917.20
2022-08-02T05:54:55.119Z,1999.90
2022-08-02T05:55:55.107Z,1999.90
2022-08-02T05:56:55.116Z,1999.90
2022-08-02T05:57:55.051Z,1999.90
2022-08-02T05:58:55.027Z,1999.90
2022-08-02T05:59:55.049Z,1999.90
2022-08-02T06:00:55.045Z,1999.90
2022-08-02T06:01:55.086Z,1999.90
2022-08-02T06:02:54.995Z,1999.90
2022-08-02T06:03:56.208Z,1999.90
2022-08-02T06:04:54.992Z,1999.90
2022-08-02T06:05:54.929Z,1999.90
2022-08-02T06:06:54.947Z,1999.90
2022-08-02T06:07:54.948Z,1999.90
2022-08-02T06:08:54.941Z,1999.90
2022-08-02T06:09:54.914Z,1999.90
2022-08-02T06:10:54.913Z,8.80
2022-08-02T06:12:02.440Z,1999.90
2022-08-02T06:12:55.885Z,1999.90
2022-08-02T06:13:54.863Z,1999.90
2022-08-02T06:14:54.861Z,1999.90
2022-08-02T06:15:54.855Z,1158.10
2022-08-02T06:16:54.979Z,1340.80
2022-08-02T06:17:54.856Z,1999.90
2022-08-02T06:18:54.816Z,1999.90
2022-08-02T06:19:54.828Z,1912.40
2022-08-02T06:20:54.778Z,1999.90
2022-08-02T06:22:34.022Z,1999.90
2022-08-02T06:22:55.779Z,1999.90
2022-08-02T06:23:58.072Z,1999.90
2022-08-02T06:24:54.841Z,1999.90
2022-08-02T06:25:54.890Z,1999.90
2022-08-02T06:26:54.747Z,1114.40
2022-08-02T06:27:54.681Z,1321.10
2022-08-02T06:28:54.712Z,1251.10
2022-08-02T06:29:54.691Z,1076.90
2022-08-02T06:30:54.667Z,413.30
2022-08-02T06:31:54.869Z,663.80
2022-08-02T06:32:54.641Z,157.50
2022-08-02T06:33:54.739Z,45.10
2022-08-02T06:34:54.700Z,61.70
2022-08-02T06:35:54.769Z,70.80
2022-08-02T06:36:54.664Z,36.40
2022-08-02T06:37:58.751Z,32.70
2022-08-02T06:38:54.750Z,32.50
2022-08-02T06:39:54.604Z,36.70
2022-08-02T06:40:54.696Z,32.50
2022-08-02T06:41:54.783Z,24.30
2022-08-02T06:42:54.558Z,28.70
2022-08-02T06:43:54.540Z,25.50
2022-08-02T06:44:57.683Z,28.20
2022-08-02T06:45:54.518Z,38.80
2022-08-02T06:47:11.892Z,40.90
2022-08-02T06:47:55.518Z,45.20
2022-08-02T06:48:54.524Z,41.60
2022-08-02T06:49:55.046Z,36.30
2022-08-02T06:50:54.479Z,55.20
2022-08-02T06:51:54.466Z,41.60
2022-08-02T06:52:54.626Z,33.70
2022-08-02T06:53:54.416Z,23.80
2022-08-02T06:54:54.528Z,25.90
2022-08-02T06:55:55.409Z,17.40
2022-08-02T06:56:54.392Z,14.90
2022-08-02T06:57:54.435Z,13.30
2022-08-02T06:58:54.376Z,12.90
2022-08-02T06:59:54.343Z,12.70
2022-08-02T07:00:54.331Z,11.90
2022-08-02T07:01:54.310Z,11.90
2022-08-02T07:02:54.519Z,11.90
2022-08-02T07:03:54.307Z,10.20
2022-08-02T07:04:54.304Z,11.40
2022-08-02T07:05:54.293Z,17.60
2022-08-02T07:06:54.263Z,24.70
2022-08-02T07:07:54.275Z,30.70
2022-08-02T07:09:18.235Z,23.60
2022-08-02T07:10:00.391Z,22.30
2022-08-02T07:10:55.238Z,21.10
2022-08-02T07:11:54.206Z,21.20
2022-08-02T07:12:57.241Z,12.50
2022-08-02T07:13:55.267Z,9.10
2022-08-02T07:14:54.192Z,8.80
2022-08-02T07:15:54.170Z,9.20
2022-08-02T07:16:54.162Z,9.30
2022-08-02T07:17:54.212Z,9.00
2022-08-02T07:18:54.144Z,9.30
2022-08-02T07:19:54.186Z,10.40
2022-08-02T07:20:54.167Z,10.50
2022-08-02T07:21:56.830Z,10.70
2022-08-02T07:22:55.145Z,12.60
2022-08-02T07:23:54.091Z,13.60
2022-08-02T07:24:54.066Z,15.50
2022-08-02T07:26:02.710Z,13.00
2022-08-02T07:27:10.568Z,10.60
2022-08-02T07:27:55.185Z,10.80
2022-08-02T07:28:54.030Z,11.50
2022-08-02T07:29:54.037Z,12.60
2022-08-02T07:30:53.997Z,12.00
2022-08-02T07:31:54.004Z,16.40
2022-08-02T07:32:54.003Z,12.10
2022-08-02T07:33:53.984Z,11.30
2022-08-02T07:34:55.180Z,10.60
2022-08-02T07:35:53.998Z,9.40
2022-08-02T07:36:53.956Z,10.80
2022-08-02T07:38:00.947Z,10.60
2022-08-02T07:38:54.928Z,12.30
2022-08-02T07:39:53.907Z,14.20
2022-08-02T07:40:53.894Z,13.40
2022-08-02T07:41:53.913Z,12.50
2022-08-02T07:42:57.726Z,14.00
2022-08-02T07:43:54.881Z,12.90
2022-08-02T07:44:53.873Z,13.60
2022-08-02T07:45:55.980Z,15.20
2022-08-02T07:46:54.848Z,13.70
2022-08-02T07:47:53.864Z,15.70
2022-08-02T07:48:53.848Z,12.60
2022-08-02T07:49:53.853Z,10.70
2022-08-02T07:50:53.791Z,9.80
2022-08-02T07:51:53.797Z,10.00
2022-08-02T07:52:58.019Z,15.60
2022-08-02T07:54:02.126Z,22.00
2022-08-02T07:54:54.789Z,22.00
2022-08-02T07:55:53.755Z,22.80
2022-08-02T07:56:58.519Z,21.40
2022-08-02T07:57:54.773Z,21.70
2022-08-02T07:58:53.730Z,14.30
2022-08-02T07:59:53.765Z,18.50
2022-08-02T08:00:53.709Z,14.50
2022-08-02T08:01:53.701Z,12.70
2022-08-02T08:02:57.380Z,16.00
2022-08-02T08:03:54.654Z,13.20
2022-08-02T08:04:53.620Z,20.60
2022-08-02T08:05:53.646Z,33.20
2022-08-02T08:06:53.631Z,727.40
2022-08-02T08:07:53.664Z,101.60
2022-08-02T08:08:53.578Z,26.00
2022-08-02T08:09:56.372Z,369.20
2022-08-02T08:10:53.615Z,95.20
2022-08-02T08:11:53.563Z,179.50
2022-08-02T08:12:53.629Z,19.00
2022-08-02T08:13:53.559Z,92.40
2022-08-02T08:14:53.675Z,94.40
2022-08-02T08:15:53.524Z,496.10
2022-08-02T08:16:53.515Z,906.10
2022-08-02T08:17:53.552Z,592.50
2022-08-02T08:18:53.488Z,693.60
2022-08-02T08:19:53.459Z,311.60
2022-08-02T08:20:53.455Z,17.90
2022-08-02T08:21:53.469Z,28.60
2022-08-02T08:22:53.480Z,15.70
2022-08-02T08:23:53.469Z,13.50
2022-08-02T08:24:53.451Z,21.60
2022-08-02T08:25:53.414Z,31.60
2022-08-02T08:26:53.375Z,117.50
2022-08-02T08:27:53.414Z,612.00
2022-08-02T08:28:53.389Z,793.10
2022-08-02T08:29:53.378Z,877.90
2022-08-02T08:30:53.354Z,734.20
2022-08-02T08:31:53.342Z,64.00
2022-08-02T08:32:53.323Z,16.20
2022-08-02T08:33:53.414Z,14.40
2022-08-02T08:34:53.356Z,18.80
2022-08-02T08:35:53.282Z,17.30
2022-08-02T08:36:53.320Z,16.60
2022-08-02T08:37:53.309Z,11.90
2022-08-02T08:38:53.349Z,14.90
2022-08-02T08:39:56.983Z,12.20
2022-08-02T08:40:54.302Z,10.10
2022-08-02T08:41:53.260Z,10.20
2022-08-02T08:42:53.224Z,13.20
2022-08-02T08:43:53.566Z,15.30
2022-08-02T08:44:53.339Z,10.80
2022-08-02T08:45:55.763Z,11.00
2022-08-02T08:46:53.207Z,10.00
2022-08-02T08:47:53.280Z,10.10
2022-08-02T08:48:53.257Z,9.60
2022-08-02T08:49:53.535Z,9.80
2022-08-02T08:50:53.154Z,12.30
2022-08-02T08:51:53.244Z,10.90
2022-08-02T08:52:53.223Z,10.90
2022-08-02T08:53:53.274Z,10.20
2022-08-02T08:54:53.233Z,10.50
2022-08-02T08:55:53.110Z,10.30
2022-08-02T08:56:53.084Z,10.30
2022-08-02T08:57:53.128Z,10.20
2022-08-02T08:58:53.164Z,9.70
2022-08-02T08:59:53.130Z,9.70
2022-08-02T09:00:53.234Z,9.60
2022-08-02T09:01:53.145Z,9.90
2022-08-02T09:02:53.140Z,9.80
2022-08-02T09:03:53.067Z,10.50
2022-08-02T09:04:54.991Z,8.00
2022-08-02T09:05:52.996Z,8.70
2022-08-02T09:06:53.119Z,9.20
2022-08-02T09:07:53.042Z,8.30
2022-08-02T09:08:52.986Z,8.20
2022-08-02T09:09:52.981Z,7.80
2022-08-02T09:10:52.950Z,8.90
2022-08-02T09:11:53.007Z,7.80
2022-08-02T09:12:52.912Z,9.90
2022-08-02T09:13:53.035Z,8.60
2022-08-02T09:14:52.932Z,8.30
2022-08-02T09:15:52.988Z,8.60
2022-08-02T09:16:52.963Z,9.00
2022-08-02T09:17:52.977Z,9.80
2022-08-02T09:18:52.922Z,7.80
2022-08-02T09:19:52.856Z,8.30
2022-08-02T09:20:52.846Z,7.30
2022-08-02T09:21:52.919Z,8.40
2022-08-02T09:22:52.799Z,9.80
2022-08-02T09:23:52.884Z,8.90
2022-08-02T09:24:52.811Z,7.30
2022-08-02T09:25:59.031Z,8.80
2022-08-02T09:26:53.783Z,9.20
2022-08-02T09:27:52.798Z,10.50
2022-08-02T09:28:52.777Z,7.70
2022-08-02T09:30:12.049Z,9.10
2022-08-02T09:30:53.706Z,9.10
2022-08-02T09:31:52.773Z,8.20
2022-08-02T09:32:52.769Z,8.80
2022-08-02T09:33:52.714Z,9.70
2022-08-02T09:34:52.801Z,11.70
2022-08-02T09:36:05.458Z,12.90
2022-08-02T09:36:54.360Z,12.40
2022-08-02T09:37:52.747Z,13.20
2022-08-02T09:38:52.840Z,13.90
2022-08-02T09:39:58.399Z,14.40
2022-08-02T09:40:53.597Z,14.30
2022-08-02T09:41:52.623Z,12.80
2022-08-02T09:42:52.613Z,10.90
2022-08-02T09:44:05.433Z,9.60
2022-08-02T09:44:53.581Z,8.90
2022-08-02T09:45:52.580Z,9.10
2022-08-02T09:46:52.557Z,8.50
2022-08-02T09:47:52.650Z,8.50
2022-08-02T09:48:52.896Z,8.10
2022-08-02T09:49:52.838Z,9.00
2022-08-02T09:50:52.485Z,8.20
2022-08-02T09:51:52.523Z,8.00
2022-08-02T09:52:52.488Z,8.00
2022-08-02T09:54:01.990Z,8.40
2022-08-02T09:54:53.576Z,9.10
2022-08-02T09:55:52.507Z,8.60
2022-08-02T09:56:52.441Z,8.70
2022-08-02T09:57:52.472Z,9.10
2022-08-02T09:58:53.336Z,11.00
2022-08-02T09:59:52.518Z,9.80
2022-08-02T10:00:52.942Z,9.00
2022-08-02T10:02:01.605Z,10.60
2022-08-02T10:02:53.369Z,11.10
2022-08-02T10:03:52.738Z,12.80
2022-08-02T10:04:54.186Z,11.70
2022-08-02T10:05:56.222Z,9.70
2022-08-02T10:06:53.360Z,10.30
2022-08-02T10:07:52.324Z,10.20
2022-08-02T10:08:52.334Z,11.40
2022-08-02T10:09:52.345Z,10.70
2022-08-02T10:10:52.308Z,11.80
2022-08-02T10:11:52.316Z,12.80
2022-08-02T10:12:52.280Z,13.00
2022-08-02T10:13:52.287Z,13.80
2022-08-02T10:14:52.293Z,14.60
2022-08-02T10:15:52.258Z,15.00
2022-08-02T10:16:52.249Z,16.40
2022-08-02T10:17:52.222Z,17.10
2022-08-02T10:18:52.277Z,17.90
2022-08-02T10:20:00.121Z,17.70
2022-08-02T10:20:53.187Z,18.60
2022-08-02T10:21:52.213Z,20.30
2022-08-02T10:22:52.177Z,21.50
2022-08-02T10:23:52.574Z,22.80
2022-08-02T10:24:52.261Z,23.80
2022-08-02T10:25:52.518Z,25.70
2022-08-02T10:26:52.139Z,25.80
2022-08-02T10:28:04.895Z,26.60
2022-08-02T10:28:53.179Z,27.20
2022-08-02T10:29:54.236Z,28.80
2022-08-02T10:30:52.082Z,23.60
2022-08-02T10:31:52.119Z,18.80
2022-08-02T10:32:52.085Z,18.10
2022-08-02T10:33:52.094Z,19.20
2022-08-02T10:34:52.150Z,20.20
2022-08-02T10:36:04.439Z,20.00
2022-08-02T10:36:53.485Z,21.60
2022-08-02T10:37:52.506Z,23.50
2022-08-02T10:38:52.040Z,25.30
2022-08-02T10:39:52.068Z,27.20
2022-08-02T10:40:51.983Z,27.80
2022-08-02T10:41:51.977Z,28.50
2022-08-02T10:42:52.031Z,27.80
2022-08-02T10:43:51.983Z,25.00
2022-08-02T10:44:51.969Z,26.40
2022-08-02T10:45:51.978Z,26.90
2022-08-02T10:46:52.316Z,21.90
2022-08-02T10:47:51.940Z,22.40
2022-08-02T10:48:52.022Z,24.50
2022-08-02T10:49:52.010Z,27.20
2022-08-02T10:50:52.352Z,26.40
2022-08-02T10:51:51.929Z,26.00
2022-08-02T10:52:51.906Z,26.30
2022-08-02T10:53:51.909Z,23.80
2022-08-02T10:54:56.160Z,20.90
2022-08-02T10:55:51.908Z,17.00
2022-08-02T10:56:51.824Z,15.40
2022-08-02T10:57:51.869Z,14.00
2022-08-02T10:58:51.895Z,13.90
2022-08-02T10:59:52.280Z,15.60
2022-08-02T11:00:51.855Z,17.90
2022-08-02T11:01:51.888Z,18.60
2022-08-02T11:02:52.941Z,18.80
2022-08-02T11:03:51.802Z,20.30
2022-08-02T11:04:51.904Z,21.20
2022-08-02T11:05:51.805Z,21.10
2022-08-02T11:06:51.869Z,19.60
2022-08-02T11:07:51.762Z,19.00
2022-08-02T11:08:51.763Z,18.60
2022-08-02T11:09:51.758Z,15.00
2022-08-02T11:10:51.696Z,14.10
2022-08-02T11:11:53.749Z,15.70
2022-08-02T11:12:51.714Z,18.40
2022-08-02T11:13:51.814Z,18.60
2022-08-02T11:14:53.058Z,18.50
2022-08-02T11:15:51.767Z,19.30
2022-08-02T11:16:51.673Z,18.70
2022-08-02T11:17:51.629Z,15.00
2022-08-02T11:18:51.632Z,13.60
2022-08-02T11:19:51.741Z,13.70
2022-08-02T11:20:51.751Z,15.10
2022-08-02T11:21:51.627Z,17.80
2022-08-02T11:22:51.593Z,18.80
2022-08-02T11:23:51.605Z,17.80
2022-08-02T11:24:51.737Z,18.90
2022-08-02T11:26:03.619Z,19.60
2022-08-02T11:26:52.575Z,20.80
2022-08-02T11:27:51.980Z,22.40
2022-08-02T11:28:51.635Z,23.60
2022-08-02T11:29:51.629Z,24.80
2022-08-02T11:30:51.513Z,26.60
2022-08-02T11:31:51.705Z,28.90
2022-08-02T11:32:51.706Z,30.90
2022-08-02T11:33:53.005Z,33.90
2022-08-02T11:34:51.694Z,34.80
2022-08-02T11:35:51.491Z,37.20
2022-08-02T11:36:51.548Z,38.80
2022-08-02T11:37:51.615Z,39.20
2022-08-02T11:38:51.518Z,40.20
2022-08-02T11:39:51.481Z,41.10
2022-08-02T11:40:57.274Z,40.50
2022-08-02T11:41:52.427Z,41.30
2022-08-02T11:42:51.447Z,42.40
2022-08-02T11:43:53.244Z,42.40
2022-08-02T11:44:52.048Z,43.20
2022-08-02T11:45:52.586Z,44.30
2022-08-02T11:46:51.963Z,44.10
2022-08-02T11:47:51.774Z,43.70
2022-08-02T11:48:51.808Z,43.70
2022-08-02T11:49:51.580Z,43.10
2022-08-02T11:50:52.658Z,42.20
2022-08-02T11:51:54.171Z,42.80
2022-08-02T11:52:51.694Z,42.10
2022-08-02T11:53:51.563Z,42.40
2022-08-02T11:54:51.455Z,42.60
2022-08-02T11:55:51.740Z,42.90
2022-08-02T11:56:51.443Z,43.40
2022-08-02T11:58:04.900Z,43.70
2022-08-02T11:58:52.955Z,43.80
2022-08-02T11:59:51.822Z,43.40
2022-08-02T12:00:51.790Z,42.60
2022-08-02T12:01:51.566Z,43.40
2022-08-02T12:02:51.512Z,43.80
2022-08-02T12:03:51.373Z,43.20
2022-08-02T12:04:51.246Z,34.70
2022-08-02T12:06:05.256Z,27.70
2022-08-02T12:06:52.250Z,24.30
2022-08-02T12:07:51.207Z,25.00
2022-08-02T12:08:51.929Z,25.70
2022-08-02T12:09:51.652Z,22.50
2022-08-02T12:10:51.212Z,19.00
2022-08-02T12:11:51.157Z,18.90
2022-08-02T12:12:51.687Z,20.60
2022-08-02T12:13:56.504Z,23.10
2022-08-02T12:14:52.307Z,23.10
2022-08-02T12:15:51.146Z,24.90
2022-08-02T12:16:51.092Z,27.10
2022-08-02T12:17:51.459Z,29.00
2022-08-02T12:18:51.427Z,30.20
2022-08-02T12:19:51.064Z,31.00
2022-08-02T12:20:51.128Z,32.50
2022-08-02T12:21:51.086Z,33.70
2022-08-02T12:22:51.096Z,33.20
2022-08-02T12:24:00.485Z,30.90
2022-08-02T12:24:52.086Z,30.40
2022-08-02T12:25:51.116Z,30.60
2022-08-02T12:26:51.019Z,31.00
2022-08-02T12:27:53.488Z,31.40
2022-08-02T12:28:51.027Z,32.40
2022-08-02T12:29:58.290Z,33.10
2022-08-02T12:30:52.042Z,35.00
2022-08-02T12:31:57.006Z,35.40
2022-08-02T12:32:51.977Z,35.70
2022-08-02T12:33:50.947Z,35.10
2022-08-02T12:34:51.020Z,34.60
2022-08-02T12:35:51.006Z,34.90
2022-08-02T12:36:50.929Z,34.20
2022-08-02T12:37:51.043Z,34.40